Time;durP1;ratioP1;P1;durP2;ratioP2;P2;SDS_P1;SDS_P2;PMS_P1;PMS_P2;Temp;Humidity;BMP_temperature;BMP_pressure;BME280_temperature;BME280_humidity;BME280_pressure;Samples;Min_cycle;Max_cycle;Signal;HPM_P1;HPM_P2
2023/08/10 00:00:12;;;;;;;6.90;3.13;;;11.60;99.90;;;;;;5054423;28;20045;-27
2023/08/10 00:02:44;;;;;;;7.88;4.20;;;11.40;99.90;;;;;;5053245;28;20045;-27
2023/08/10 00:05:11;;;;;;;11.25;3.80;;;11.40;99.90;;;;;;5053563;28;20055;-27
2023/08/10 00:07:37;;;;;;;6.90;3.00;;;11.20;99.90;;;;;;5054243;28;20044;-27
2023/08/10 00:10:08;;;;;;;11.48;3.30;;;11.10;99.90;;;;;;5054228;28;20132;-27
2023/08/10 00:12:38;;;;;;;18.02;3.90;;;11.00;99.90;;;;;;5054215;28;20115;-27
2023/08/10 00:15:05;;;;;;;5.20;2.75;;;11.00;99.90;;;;;;5054165;28;20088;-27
2023/08/10 00:17:31;;;;;;;10.05;3.55;;;10.90;99.90;;;;;;5053125;28;20053;-27
2023/08/10 00:19:56;;;;;;;5.90;3.00;;;10.90;99.90;;;;;;5054037;28;20123;-27
2023/08/10 00:22:22;;;;;;;6.45;3.00;;;10.90;99.90;;;;;;5053926;28;20045;-27
2023/08/10 00:24:48;;;;;;;8.43;2.50;;;10.90;99.90;;;;;;5054566;28;20111;-27
2023/08/10 00:27:14;;;;;;;8.60;3.28;;;11.00;99.90;;;;;;5053813;28;20049;-27
2023/08/10 00:29:39;;;;;;;9.45;2.92;;;10.90;99.90;;;;;;5054158;28;20076;-27
2023/08/10 00:32:05;;;;;;;11.60;3.38;;;11.00;99.90;;;;;;5053236;28;20491;-28
2023/08/10 00:34:32;;;;;;;7.65;2.83;;;11.00;99.90;;;;;;5054590;28;20131;-27
2023/08/10 00:36:57;;;;;;;8.00;2.60;;;11.00;99.90;;;;;;5053815;28;20052;-27
2023/08/10 00:39:23;;;;;;;7.00;2.78;;;11.00;99.90;;;;;;5036258;28;20063;-27
2023/08/10 00:41:49;;;;;;;9.73;3.08;;;11.10;99.90;;;;;;5053753;28;20506;-27
2023/08/10 00:44:16;;;;;;;11.43;3.70;;;11.10;99.90;;;;;;5052256;28;20060;-27
2023/08/10 00:46:42;;;;;;;5.88;2.55;;;11.10;99.90;;;;;;5053725;28;20083;-27
2023/08/10 00:49:09;;;;;;;5.25;2.45;;;11.20;99.90;;;;;;5053621;28;20045;-27
2023/08/10 00:51:35;;;;;;;8.25;3.40;;;11.20;99.90;;;;;;5054439;28;20051;-27
2023/08/10 00:54:01;;;;;;;9.77;2.92;;;11.20;99.90;;;;;;5052469;28;20053;-27
2023/08/10 00:56:27;;;;;;;7.30;3.00;;;11.30;99.90;;;;;;5036054;28;20479;-27
2023/08/10 00:58:54;;;;;;;11.35;3.40;;;11.40;99.90;;;;;;5053525;28;20048;-27
2023/08/10 01:01:20;;;;;;;6.88;2.78;;;11.50;99.90;;;;;;5054372;28;20049;-27
2023/08/10 01:03:45;;;;;;;9.13;3.47;;;11.40;99.90;;;;;;5054250;28;20455;-27
2023/08/10 01:06:38;;;;;;;14.52;3.90;;;11.60;99.90;;;;;;5054079;28;20048;-27
2023/08/10 01:09:25;;;;;;;7.90;2.35;;;11.60;99.90;;;;;;5052340;28;20044;-27
2023/08/10 01:12:20;;;;;;;11.57;2.83;;;11.70;99.90;;;;;;5054320;28;20049;-27
2023/08/10 01:14:58;;;;;;;11.32;3.53;;;11.70;99.90;;;;;;5053905;28;20049;-27
2023/08/10 01:17:29;;;;;;;8.80;3.25;;;11.80;99.90;;;;;;5057530;28;20060;-27
2023/08/10 01:19:59;;;;;;;8.68;2.75;;;11.90;99.90;;;;;;5057333;28;20048;-27
2023/08/10 01:22:44;;;;;;;10.13;2.45;;;11.90;99.90;;;;;;5057277;28;20052;-27
2023/08/10 01:25:10;;;;;;;8.73;2.70;;;12.00;99.90;;;;;;5058182;28;20422;-28
2023/08/10 01:27:37;;;;;;;8.93;2.97;;;12.00;99.90;;;;;;5057251;28;20498;-27
2023/08/10 01:30:04;;;;;;;8.40;2.97;;;11.90;99.90;;;;;;5057296;28;20041;-27
2023/08/10 01:32:32;;;;;;;9.38;3.35;;;12.00;99.90;;;;;;5056853;28;20395;-27
2023/08/10 01:34:59;;;;;;;6.32;2.92;;;11.90;99.90;;;;;;5056760;28;20477;-27
2023/08/10 01:37:26;;;;;;;5.70;2.40;;;11.90;99.90;;;;;;5057076;28;20510;-27
2023/08/10 01:39:52;;;;;;;6.97;2.50;;;11.90;99.90;;;;;;5057028;28;20131;-27
2023/08/10 01:42:17;;;;;;;4.63;2.65;;;11.80;99.90;;;;;;5056878;28;20041;-27
2023/08/10 01:44:43;;;;;;;10.63;4.68;;;11.80;99.90;;;;;;5057300;28;20064;-27
2023/08/10 01:47:31;;;;;;;8.23;2.50;;;11.80;99.90;;;;;;5057139;28;20056;-27
2023/08/10 01:50:02;;;;;;;9.65;3.75;;;11.80;99.90;;;;;;5057170;28;20037;-28
2023/08/10 01:52:33;;;;;;;7.28;2.90;;;11.70;99.90;;;;;;5057444;28;20059;-27
2023/08/10 01:54:59;;;;;;;8.57;2.65;;;11.60;99.90;;;;;;5056790;28;20048;-28
2023/08/10 01:57:28;;;;;;;6.00;2.95;;;11.60;99.90;;;;;;5057278;28;20084;-27
2023/08/10 01:59:54;;;;;;;11.40;4.00;;;11.60;99.90;;;;;;5056672;28;20045;-27
2023/08/10 02:02:20;;;;;;;9.75;2.92;;;11.50;99.90;;;;;;5055405;28;20110;-27
2023/08/10 02:04:46;;;;;;;6.68;2.92;;;11.50;99.90;;;;;;5055416;28;20072;-27
2023/08/10 02:07:11;;;;;;;7.30;3.03;;;11.40;99.90;;;;;;5057071;28;20452;-27
2023/08/10 02:09:38;;;;;;;7.75;2.72;;;11.40;99.90;;;;;;5038931;28;20099;-29
2023/08/10 02:12:04;;;;;;;9.10;3.38;;;11.30;99.90;;;;;;5057005;28;20376;-27
2023/08/10 02:14:30;;;;;;;8.85;3.00;;;11.30;99.90;;;;;;5055464;28;20061;-27
2023/08/10 02:16:55;;;;;;;13.23;3.55;;;11.30;99.90;;;;;;5056932;28;20064;-27
2023/08/10 02:19:22;;;;;;;8.70;3.20;;;11.30;99.90;;;;;;5056847;28;20059;-27
2023/08/10 02:21:49;;;;;;;6.45;3.20;;;11.30;99.90;;;;;;5056219;28;20049;-27
2023/08/10 02:24:15;;;;;;;6.80;3.20;;;11.30;99.90;;;;;;5056159;28;20128;-27
2023/08/10 02:26:40;;;;;;;8.25;3.58;;;11.40;99.90;;;;;;5054667;28;20088;-27
2023/08/10 02:29:06;;;;;;;9.82;4.05;;;11.40;99.90;;;;;;5055874;28;20072;-27
2023/08/10 02:31:32;;;;;;;11.45;3.72;;;11.30;99.90;;;;;;5056099;28;20052;-27
2023/08/10 02:33:57;;;;;;;16.77;4.43;;;11.30;99.90;;;;;;5055963;28;20037;-27
2023/08/10 02:36:23;;;;;;;8.38;2.65;;;11.40;99.90;;;;;;5056021;28;20091;-27
2023/08/10 02:38:49;;;;;;;6.93;2.92;;;11.30;99.90;;;;;;5056807;28;20418;-27
2023/08/10 02:41:14;;;;;;;12.52;4.28;;;11.40;99.90;;;;;;5055917;28;20048;-27
2023/08/10 02:43:40;;;;;;;17.85;4.20;;;11.40;99.90;;;;;;5056153;28;20098;-27
2023/08/10 02:46:06;;;;;;;11.20;3.08;;;11.40;99.90;;;;;;5055749;28;20095;-27
2023/08/10 02:48:32;;;;;;;6.65;3.25;;;11.40;99.90;;;;;;5054891;28;20041;-28
2023/08/10 02:50:58;;;;;;;8.43;3.20;;;11.40;99.90;;;;;;5055735;28;20086;-27
2023/08/10 02:53:23;;;;;;;6.93;2.90;;;11.40;99.90;;;;;;5055703;28;20048;-28
2023/08/10 02:55:49;;;;;;;5.88;3.17;;;11.40;99.90;;;;;;5054393;28;20041;-27
2023/08/10 02:58:15;;;;;;;9.15;3.15;;;11.40;99.90;;;;;;5055618;28;20142;-27
2023/08/10 03:00:41;;;;;;;10.02;3.10;;;11.50;99.90;;;;;;5055555;28;20044;-27
2023/08/10 03:03:07;;;;;;;6.50;3.45;;;11.50;99.90;;;;;;5056019;28;20053;-27
2023/08/10 03:05:33;;;;;;;9.15;3.00;;;11.50;99.90;;;;;;5055522;28;20041;-27
2023/08/10 03:07:58;;;;;;;8.25;3.40;;;11.60;99.90;;;;;;5055953;28;20044;-27
2023/08/10 03:10:24;;;;;;;10.32;3.95;;;11.60;99.90;;;;;;5055900;28;20475;-28
2023/08/10 03:12:50;;;;;;;9.15;3.78;;;11.60;99.90;;;;;;5054350;28;20137;-27
2023/08/10 03:15:15;;;;;;;9.35;3.40;;;11.60;99.90;;;;;;5055271;28;20053;-28
2023/08/10 03:17:41;;;;;;;9.15;3.65;;;11.60;99.90;;;;;;5055529;28;20049;-27
2023/08/10 03:20:13;;;;;;;6.25;2.65;;;11.70;99.90;;;;;;5055011;28;20356;-27
2023/08/10 03:22:41;;;;;;;10.35;2.90;;;11.80;99.90;;;;;;5055091;28;20475;-27
2023/08/10 03:25:08;;;;;;;7.50;2.60;;;11.80;99.90;;;;;;5055105;28;20549;-27
2023/08/10 03:27:34;;;;;;;12.95;3.00;;;11.80;99.90;;;;;;5055315;28;20080;-27
2023/08/10 03:30:00;;;;;;;7.82;3.08;;;11.90;99.90;;;;;;5054979;28;20053;-28
2023/08/10 03:32:26;;;;;;;8.52;2.63;;;11.90;99.90;;;;;;5054939;28;20053;-27
2023/08/10 03:34:52;;;;;;;8.07;3.05;;;12.00;99.90;;;;;;5054117;28;20045;-27
2023/08/10 03:37:18;;;;;;;8.48;2.88;;;12.00;99.90;;;;;;5054830;28;20049;-27
2023/08/10 03:39:43;;;;;;;8.43;2.83;;;12.00;99.90;;;;;;5054765;28;20045;-27
2023/08/10 03:42:09;;;;;;;7.55;2.47;;;12.10;99.90;;;;;;5054611;28;20114;-27
2023/08/10 03:44:35;;;;;;;9.23;3.67;;;12.10;99.90;;;;;;5053321;28;20519;-27
2023/08/10 03:47:01;;;;;;;5.63;2.88;;;12.10;99.90;;;;;;5054707;28;20060;-27
2023/08/10 03:49:26;;;;;;;6.35;3.10;;;12.10;99.90;;;;;;5054484;28;20479;-27
2023/08/10 03:51:52;;;;;;;8.25;2.90;;;12.10;99.90;;;;;;5054813;28;20044;-27
2023/08/10 03:54:18;;;;;;;5.13;2.90;;;12.10;99.90;;;;;;5054595;28;20049;-27
2023/08/10 03:56:44;;;;;;;7.05;3.25;;;12.10;99.90;;;;;;5053532;28;20049;-27
2023/08/10 03:59:11;;;;;;;6.45;2.90;;;12.10;99.90;;;;;;5053214;28;20399;-27
2023/08/10 04:01:37;;;;;;;7.47;3.35;;;12.10;99.90;;;;;;5054372;28;20087;-28
2023/08/10 04:04:03;;;;;;;7.38;3.33;;;12.20;99.90;;;;;;5054261;28;20040;-27
2023/08/10 04:06:29;;;;;;;11.45;4.30;;;12.20;99.90;;;;;;5053312;28;20509;-27
2023/08/10 04:08:55;;;;;;;5.80;3.70;;;12.20;99.90;;;;;;5054255;28;20048;-27
2023/08/10 04:11:21;;;;;;;6.68;3.97;;;12.30;99.90;;;;;;5054750;28;20052;-26
2023/08/10 04:13:47;;;;;;;7.57;3.63;;;12.20;99.90;;;;;;5052689;28;20044;-27
2023/08/10 04:16:12;;;;;;;6.25;4.25;;;12.20;99.90;;;;;;5054078;28;20072;-27
2023/08/10 04:18:39;;;;;;;6.97;4.03;;;12.20;99.90;;;;;;5054118;28;20045;-27
2023/08/10 04:21:06;;;;;;;8.90;3.97;;;12.30;99.90;;;;;;5054049;28;20056;-27
2023/08/10 04:23:31;;;;;;;9.13;3.92;;;12.20;99.90;;;;;;5053923;28;20186;-27
2023/08/10 04:25:57;;;;;;;5.85;4.32;;;12.20;99.90;;;;;;5054079;28;20132;-27
2023/08/10 04:28:23;;;;;;;12.35;4.50;;;12.30;99.90;;;;;;5053957;28;20045;-27
2023/08/10 04:30:49;;;;;;;10.00;4.53;;;12.30;99.90;;;;;;5054697;28;20041;-27
2023/08/10 04:33:15;;;;;;;7.78;4.43;;;12.20;99.90;;;;;;5053777;28;20047;-27
2023/08/10 04:35:41;;;;;;;7.43;4.72;;;12.30;99.90;;;;;;5054454;28;20387;-27
2023/08/10 04:38:06;;;;;;;10.30;4.35;;;12.20;99.90;;;;;;5053150;28;20405;-27
2023/08/10 04:40:32;;;;;;;6.47;4.07;;;12.30;99.90;;;;;;5053461;28;20048;-27
2023/08/10 04:42:59;;;;;;;7.15;4.30;;;12.30;99.90;;;;;;5053709;28;20131;-27
2023/08/10 04:45:25;;;;;;;8.82;4.40;;;12.30;99.90;;;;;;5053949;28;20141;-27
2023/08/10 04:47:51;;;;;;;6.72;3.40;;;12.30;99.90;;;;;;5053663;28;20150;-27
2023/08/10 04:50:17;;;;;;;6.28;4.10;;;12.30;99.90;;;;;;5052256;28;20088;-27
2023/08/10 04:52:43;;;;;;;10.50;4.18;;;12.30;99.90;;;;;;5052456;28;20037;-27
2023/08/10 04:55:10;;;;;;;11.10;5.00;;;12.30;99.90;;;;;;5053642;28;20048;-27
2023/08/10 04:57:37;;;;;;;8.82;3.88;;;12.40;99.90;;;;;;5054382;28;20098;-27
2023/08/10 05:00:13;;;;;;;9.77;4.60;;;12.50;99.90;;;;;;5053535;28;20052;-27
2023/08/10 05:02:39;;;;;;;8.57;4.55;;;12.50;99.90;;;;;;5052333;28;20041;-27
2023/08/10 05:05:06;;;;;;;8.05;4.85;;;12.60;99.90;;;;;;5054042;28;20044;-27
2023/08/10 05:07:32;;;;;;;10.48;4.47;;;12.60;99.90;;;;;;5053058;28;20390;-27
2023/08/10 05:10:01;;;;;;;7.68;3.92;;;12.60;99.90;;;;;;5052758;28;20049;-27
2023/08/10 05:12:26;;;;;;;7.30;4.05;;;12.70;99.90;;;;;;5053424;28;20478;-27
2023/08/10 05:14:52;;;;;;;6.18;4.28;;;12.80;99.90;;;;;;5053385;28;20136;-27
2023/08/10 05:17:18;;;;;;;7.45;4.30;;;13.00;99.90;;;;;;5053372;28;20049;-27
2023/08/10 05:19:43;;;;;;;9.27;4.80;;;13.00;99.90;;;;;;5053094;28;20098;-27
2023/08/10 05:22:09;;;;;;;12.23;4.38;;;13.10;99.90;;;;;;5053878;28;20051;-27
2023/08/10 05:24:35;;;;;;;9.32;3.92;;;13.20;99.90;;;;;;5053252;28;20048;-28
2023/08/10 05:27:01;;;;;;;9.38;3.65;;;13.30;99.90;;;;;;5053333;28;20052;-27
2023/08/10 05:29:27;;;;;;;8.77;3.83;;;13.50;99.90;;;;;;5052592;28;20410;-27
2023/08/10 05:31:53;;;;;;;8.63;3.80;;;13.60;99.90;;;;;;5053225;28;20479;-27
2023/08/10 05:34:19;;;;;;;8.18;3.95;;;13.60;99.90;;;;;;5051881;28;20041;-27
2023/08/10 05:36:44;;;;;;;9.77;3.35;;;13.60;99.90;;;;;;5053275;28;20132;-27
2023/08/10 05:39:10;;;;;;;7.18;3.38;;;13.70;99.90;;;;;;5053437;28;20049;-27
2023/08/10 05:41:36;;;;;;;7.30;3.70;;;13.70;99.90;;;;;;5053152;28;20056;-28
2023/08/10 05:44:01;;;;;;;9.88;3.70;;;13.80;99.90;;;;;;5051647;28;20049;-26
2023/08/10 05:46:27;;;;;;;6.75;2.85;;;13.80;99.90;;;;;;5051895;28;20053;-27
2023/08/10 05:48:53;;;;;;;6.25;3.45;;;13.80;99.90;;;;;;5053084;28;20060;-27
2023/08/10 05:51:19;;;;;;;8.15;2.97;;;13.80;99.90;;;;;;5051871;28;20049;-27
2023/08/10 05:53:44;;;;;;;7.00;3.17;;;13.80;99.90;;;;;;5053336;28;20056;-27
2023/08/10 05:56:10;;;;;;;8.30;3.55;;;14.00;99.90;;;;;;5052915;28;20045;-27
2023/08/10 05:58:36;;;;;;;4.78;2.97;;;14.20;99.90;;;;;;5053048;28;20076;-27
2023/08/10 06:01:03;;;;;;;5.38;3.00;;;14.70;99.90;;;;;;5053007;28;20483;-27
2023/08/10 06:03:29;;;;;;;7.80;3.60;;;15.10;99.90;;;;;;5055886;28;20041;-27
2023/08/10 06:05:55;;;;;;;8.70;3.20;;;15.20;99.90;;;;;;5055441;28;20048;-27
2023/08/10 06:08:20;;;;;;;10.55;3.05;;;15.40;99.90;;;;;;5056526;28;20394;-27
2023/08/10 06:10:49;;;;;;;6.43;2.70;;;15.40;99.90;;;;;;5056548;28;20056;-27
2023/08/10 06:13:16;;;;;;;7.20;2.47;;;15.40;99.90;;;;;;5055380;28;20064;-27
2023/08/10 06:15:41;;;;;;;7.28;3.22;;;15.50;99.90;;;;;;5057051;28;20446;-28
2023/08/10 06:18:07;;;;;;;9.48;2.60;;;15.40;99.90;;;;;;5056387;28;20115;-28
2023/08/10 06:20:33;;;;;;;5.63;2.58;;;15.40;99.90;;;;;;5056390;28;20076;-27
2023/08/10 06:22:59;;;;;;;11.75;2.17;;;15.40;99.90;;;;;;5056200;28;20040;-28
2023/08/10 06:25:25;;;;;;;12.63;2.35;;;15.30;99.90;;;;;;5055948;28;20103;-27
2023/08/10 06:27:51;;;;;;;4.13;2.42;;;15.30;99.90;;;;;;5057045;28;20426;-27
2023/08/10 06:30:17;;;;;;;6.57;2.35;;;15.30;99.90;;;;;;5056986;28;20041;-27
2023/08/10 06:32:43;;;;;;;7.90;2.03;;;15.20;99.90;;;;;;5056675;28;20040;-27
2023/08/10 06:35:09;;;;;;;6.60;2.05;;;15.30;99.90;;;;;;5055979;28;20102;-27
2023/08/10 06:37:36;;;;;;;8.35;2.38;;;15.20;99.90;;;;;;5054805;28;20041;-27
2023/08/10 06:40:07;;;;;;;8.50;2.40;;;15.30;99.90;;;;;;5038086;28;20056;-27
2023/08/10 06:42:33;;;;;;;4.53;1.65;;;15.40;99.90;;;;;;5056433;28;20470;-27
2023/08/10 06:44:59;;;;;;;5.95;1.80;;;15.50;99.90;;;;;;5054973;28;20124;-28
2023/08/10 06:47:24;;;;;;;4.80;1.42;;;15.50;99.90;;;;;;5055441;28;20091;-28
2023/08/10 06:49:51;;;;;;;4.40;1.70;;;15.60;99.90;;;;;;5055084;28;20487;-28
2023/08/10 06:52:17;;;;;;;6.68;1.65;;;15.70;99.90;;;;;;5054780;28;20110;-28
2023/08/10 06:54:42;;;;;;;5.90;1.15;;;15.80;99.90;;;;;;5055708;28;20045;-28
2023/08/10 06:57:08;;;;;;;7.43;1.20;;;15.80;73.40;;;;;;5055649;28;20368;-28
2023/08/10 06:59:34;;;;;;;6.55;1.80;;;15.80;1.00;;;;;;5055648;28;20086;-28
2023/08/10 07:02:01;;;;;;;3.83;1.05;;;15.90;1.00;;;;;;5038595;28;20048;-28
2023/08/10 07:04:27;;;;;;;2.47;1.20;;;16.00;1.00;;;;;;5054334;28;20045;-27
2023/08/10 07:06:53;;;;;;;7.15;1.48;;;16.10;1.00;;;;;;5055483;28;20045;-28
2023/08/10 07:09:22;;;;;;;5.60;1.40;;;16.20;1.00;;;;;;5055301;28;20091;-28
2023/08/10 07:11:48;;;;;;;5.13;1.20;;;16.30;99.90;;;;;;5055225;28;20131;-27
2023/08/10 07:14:14;;;;;;;7.63;1.33;;;16.40;99.90;;;;;;5055004;28;20124;-27
2023/08/10 07:16:39;;;;;;;2.90;0.90;;;16.40;99.90;;;;;;5054854;28;20136;-27
2023/08/10 07:19:05;;;;;;;5.15;1.35;;;16.60;99.90;;;;;;5055251;28;20049;-27
2023/08/10 07:21:31;;;;;;;4.68;1.33;;;16.70;99.90;;;;;;5055136;28;20387;-28
2023/08/10 07:23:57;;;;;;;5.68;1.05;;;16.90;41.30;;;;;;5055063;28;20076;-28
2023/08/10 07:26:23;;;;;;;6.45;2.20;;;17.20;1.00;;;;;;5055067;28;20076;-28
2023/08/10 07:28:49;;;;;;;8.10;1.00;;;17.50;1.00;;;;;;5054883;28;20044;-28
2023/08/10 07:31:15;;;;;;;7.90;1.33;;;17.80;99.90;;;;;;5054665;28;20068;-28
2023/08/10 07:33:42;;;;;;;4.88;1.38;;;18.00;89.10;;;;;;5053664;28;20049;-28
2023/08/10 07:36:08;;;;;;;6.90;0.90;;;18.40;99.90;;;;;;5055491;28;20064;-28
2023/08/10 07:38:33;;;;;;;6.07;1.00;;;18.60;99.90;;;;;;5055653;28;20044;-28
2023/08/10 07:40:59;;;;;;;4.38;1.00;;;18.40;1.00;;;;;;5055647;28;20467;-27
2023/08/10 07:43:25;;;;;;;3.72;0.80;;;18.30;1.00;;;;;;5053577;28;20123;-28
2023/08/10 07:45:51;;;;;;;4.47;0.73;;;18.10;1.00;;;;;;5055263;28;20061;-28
2023/08/10 07:48:16;;;;;;;6.13;1.08;;;18.10;1.00;;;;;;5053196;28;20131;-27
2023/08/10 07:50:42;;;;;;;4.15;0.88;;;18.10;1.00;;;;;;5054620;28;20041;-29
2023/08/10 07:53:08;;;;;;;6.32;1.30;;;18.20;1.00;;;;;;5054519;28;20037;-28
2023/08/10 07:55:33;;;;;;;6.45;0.85;;;18.10;1.00;;;;;;5055087;28;20056;-28
2023/08/10 07:57:59;;;;;;;5.68;0.93;;;18.20;1.00;;;;;;5054436;28;20131;-28
2023/08/10 08:00:25;;;;;;;3.05;0.80;;;18.20;99.90;;;;;;5054344;28;20053;-27
2023/08/10 08:02:51;;;;;;;4.10;1.02;;;18.10;81.80;;;;;;5054242;28;20052;-28
2023/08/10 08:05:17;;;;;;;6.70;1.35;;;18.10;2.90;;;;;;5053334;28;20058;-28
2023/08/10 08:07:44;;;;;;;6.88;1.63;;;18.10;1.00;;;;;;5036893;28;20049;-27
2023/08/10 08:10:10;;;;;;;6.18;1.42;;;18.00;1.00;;;;;;5054666;28;20052;-29
2023/08/10 08:12:36;;;;;;;2.95;0.77;;;18.10;97.60;;;;;;5036374;28;20092;-28
2023/08/10 08:15:03;;;;;;;10.23;1.00;;;17.90;1.00;;;;;;5054007;28;20076;-28
2023/08/10 08:18:08;;;;;;;4.20;0.60;;;17.90;1.00;;;;;;5052851;28;20068;-28
2023/08/10 08:20:34;;;;;;;3.95;1.02;;;17.80;99.90;;;;;;5054505;28;20045;-27
2023/08/10 08:23:00;;;;;;;4.78;1.00;;;17.90;37.70;;;;;;5036238;28;20045;-28
2023/08/10 08:25:25;;;;;;;6.45;0.95;;;18.00;99.90;;;;;;5052357;28;20103;-28
2023/08/10 08:27:51;;;;;;;4.15;0.90;;;18.00;99.90;;;;;;5054039;28;20041;-28
2023/08/10 08:30:17;;;;;;;3.92;0.77;;;17.80;99.90;;;;;;5053304;28;20045;-27
2023/08/10 08:32:42;;;;;;;5.50;0.90;;;17.80;99.90;;;;;;5053909;28;20040;-28
2023/08/10 08:35:08;;;;;;;4.03;1.05;;;17.80;1.00;;;;;;5053191;28;20056;-27
2023/08/10 08:37:34;;;;;;;6.40;1.35;;;17.80;1.00;;;;;;5053529;28;20136;-28
2023/08/10 08:39:59;;;;;;;3.42;0.80;;;17.80;99.90;;;;;;5053670;28;20079;-28
2023/08/10 08:42:27;;;;;;;4.18;0.80;;;18.00;1.00;;;;;;5053157;28;20049;-27
2023/08/10 08:44:56;;;;;;;4.68;0.93;;;17.80;1.00;;;;;;5053512;28;20102;-28
2023/08/10 08:47:21;;;;;;;4.10;1.20;;;17.80;1.00;;;;;;5053658;28;20060;-28
2023/08/10 08:49:47;;;;;;;5.15;0.90;;;17.90;1.00;;;;;;5052501;28;20433;-27
2023/08/10 08:52:13;;;;;;;11.52;1.80;;;17.90;57.00;;;;;;5052996;28;20103;-28
2023/08/10 08:54:39;;;;;;;2.78;0.90;;;18.10;98.30;;;;;;5053597;28;20091;-28
2023/08/10 08:57:05;;;;;;;5.18;0.90;;;18.10;1.00;;;;;;5054417;28;20044;-28
2023/08/10 08:59:30;;;;;;;10.27;1.02;;;18.30;1.00;;;;;;5053782;28;20471;-28
2023/08/10 09:01:57;;;;;;;4.30;0.75;;;18.40;1.00;;;;;;5052575;28;20144;-28
2023/08/10 09:04:23;;;;;;;5.82;0.88;;;18.70;99.90;;;;;;5053678;28;20041;-28
2023/08/10 09:06:49;;;;;;;7.05;0.93;;;18.60;99.90;;;;;;5053470;28;20131;-28
2023/08/10 09:09:14;;;;;;;3.90;0.50;;;18.50;1.00;;;;;;5053725;28;20132;-28
2023/08/10 09:11:40;;;;;;;2.50;0.70;;;18.30;1.00;;;;;;5053499;28;20053;-28
2023/08/10 09:14:09;;;;;;;3.70;0.90;;;18.40;1.00;;;;;;5052151;28;20070;-28
2023/08/10 09:16:37;;;;;;;5.90;0.70;;;18.40;1.00;;;;;;5053407;28;20057;-28
2023/08/10 09:19:03;;;;;;;5.38;0.70;;;18.30;1.00;;;;;;5053427;28;20084;-28
2023/08/10 09:21:32;;;;;;;5.22;1.30;;;18.40;1.00;;;;;;5052406;28;20095;-27
2023/08/10 09:23:58;;;;;;;2.83;0.50;;;18.50;1.00;;;;;;5054047;28;20045;-28
2023/08/10 09:26:25;;;;;;;1.23;0.40;;;18.60;1.00;;;;;;5053287;28;20067;-28
2023/08/10 09:28:51;;;;;;;5.25;0.93;;;18.90;1.00;;;;;;5053255;28;20045;-28
2023/08/10 09:31:27;;;;;;;4.95;1.13;;;19.00;1.00;;;;;;5053811;28;20084;-28
2023/08/10 09:33:59;;;;;;;4.70;0.68;;;19.10;99.90;;;;;;5053736;28;20045;-28
2023/08/10 09:36:28;;;;;;;2.97;0.57;;;19.10;99.90;;;;;;5054714;28;20048;-27
2023/08/10 09:38:55;;;;;;;4.93;1.00;;;19.10;99.90;;;;;;5056116;28;20060;-28
2023/08/10 09:41:22;;;;;;;4.25;1.30;;;18.90;99.90;;;;;;5057301;28;20048;-28
2023/08/10 09:43:49;;;;;;;6.03;0.70;;;18.80;1.00;;;;;;5055860;28;20124;-29
2023/08/10 09:46:16;;;;;;;6.65;1.13;;;18.70;32.90;;;;;;5055631;28;20053;-28
2023/08/10 09:48:48;;;;;;;2.58;0.73;;;18.70;99.90;;;;;;5039851;28;20061;-28
2023/08/10 09:51:14;;;;;;;1.27;0.50;;;18.80;1.00;;;;;;5057201;28;20052;-28
2023/08/10 09:53:41;;;;;;;6.50;1.30;;;18.90;7.70;;;;;;5056580;28;20494;-28
2023/08/10 09:56:07;;;;;;;2.80;0.68;;;18.90;1.00;;;;;;5055604;28;20102;-28
2023/08/10 09:58:37;;;;;;;3.15;0.82;;;18.80;1.00;;;;;;5056750;28;20084;-28
2023/08/10 10:01:05;;;;;;;4.30;1.08;;;18.90;99.90;;;;;;5056655;28;20052;-28
2023/08/10 10:03:32;;;;;;;3.30;1.13;;;18.90;1.00;;;;;;5056684;28;20386;-28
2023/08/10 10:05:59;;;;;;;4.63;1.38;;;18.90;1.00;;;;;;5055343;28;20490;-29
2023/08/10 10:08:29;;;;;;;5.53;0.60;;;18.80;1.00;;;;;;5057389;28;20136;-28
2023/08/10 10:10:58;;;;;;;3.20;0.93;;;18.80;1.00;;;;;;5055408;28;20495;-28
2023/08/10 10:13:25;;;;;;;4.50;0.90;;;18.80;1.00;;;;;;5055292;28;20037;-28
2023/08/10 10:15:53;;;;;;;4.53;0.95;;;18.80;67.30;;;;;;5055243;28;20049;-29
2023/08/10 10:18:19;;;;;;;4.82;0.85;;;18.70;63.60;;;;;;5055227;28;20049;-28
2023/08/10 10:20:45;;;;;;;3.45;0.82;;;18.80;13.40;;;;;;5056302;28;20127;-28
2023/08/10 10:23:16;;;;;;;5.25;1.17;;;18.90;99.90;;;;;;5055912;28;20490;-28
2023/08/10 10:25:56;;;;;;;6.85;1.05;;;18.90;1.00;;;;;;5055831;28;20049;-28
2023/08/10 10:28:23;;;;;;;4.38;0.85;;;18.80;1.00;;;;;;5056894;28;20044;-28
2023/08/10 10:31:04;;;;;;;3.15;0.52;;;18.80;26.20;;;;;;5038688;28;20049;-27
2023/08/10 10:33:30;;;;;;;2.58;0.68;;;18.90;1.00;;;;;;5056052;28;20045;-28
2023/08/10 10:36:11;;;;;;;4.97;0.73;;;19.10;1.00;;;;;;5055085;28;20053;-28
2023/08/10 10:38:41;;;;;;;3.50;1.00;;;19.30;1.00;;;;;;5056010;28;20048;-29
2023/08/10 10:41:09;;;;;;;3.40;0.85;;;19.60;1.00;;;;;;5056533;28;20127;-28
2023/08/10 10:43:34;;;;;;;4.60;1.00;;;19.90;1.00;;;;;;5038198;28;20171;-28
2023/08/10 10:46:00;;;;;;;6.22;1.00;;;20.30;1.00;;;;;;5056477;28;20140;-28
2023/08/10 10:48:36;;;;;;;3.30;0.70;;;20.20;99.90;;;;;;5055161;28;20154;-28
2023/08/10 10:51:04;;;;;;;4.07;0.80;;;20.00;1.00;;;;;;5054582;28;20495;-29
2023/08/10 10:53:30;;;;;;;3.85;1.00;;;20.20;99.90;;;;;;5055714;28;20052;-28
2023/08/10 10:55:57;;;;;;;5.25;1.15;;;20.20;99.90;;;;;;5055546;28;20057;-28
2023/08/10 10:58:22;;;;;;;3.97;0.93;;;20.40;99.90;;;;;;5054422;28;20395;-28
2023/08/10 11:00:48;;;;;;;4.68;1.10;;;20.70;99.90;;;;;;5037836;28;20036;-28
2023/08/10 11:03:14;;;;;;;7.55;1.08;;;20.50;36.40;;;;;;5053816;28;20040;-28
2023/08/10 11:05:40;;;;;;;3.15;1.38;;;20.60;1.00;;;;;;5069108;28;20045;-28
2023/08/10 11:08:06;;;;;;;4.65;1.38;;;20.70;1.00;;;;;;5075067;28;20102;-28
2023/08/10 11:10:36;;;;;;;7.50;1.00;;;20.60;1.00;;;;;;5060934;28;20067;-27
2023/08/10 11:13:07;;;;;;;4.93;0.88;;;20.50;1.00;;;;;;5058064;28;20048;-28
2023/08/10 11:15:33;;;;;;;3.10;0.80;;;20.30;99.90;;;;;;5075479;28;20494;-28
2023/08/10 11:18:00;;;;;;;6.32;1.50;;;20.40;1.00;;;;;;5041569;28;20059;-29
2023/08/10 11:20:26;;;;;;;4.75;1.35;;;20.40;1.00;;;;;;5072074;28;20052;-28
2023/08/10 11:22:53;;;;;;;5.82;1.30;;;20.50;69.80;;;;;;5068792;28;20390;-28
2023/08/10 11:25:25;;;;;;;4.55;1.08;;;20.90;52.00;;;;;;5075088;28;20135;-28
2023/08/10 11:27:52;;;;;;;;;;;21.00;1.00;;;;;;5073171;28;20048;-28
2023/08/10 11:30:20;;;;;;;3.13;1.25;;;20.80;99.90;;;;;;5073893;28;19946;-28
2023/08/10 11:32:51;;;;;;;5.22;1.17;;;20.60;1.00;;;;;;5073611;28;20044;-28
2023/08/10 11:35:20;;;;;;;7.57;1.30;;;20.50;1.00;;;;;;5075329;28;20044;-29
2023/08/10 11:37:47;;;;;;;4.15;1.25;;;20.60;1.00;;;;;;5072467;28;20048;-28
2023/08/10 11:40:22;;;;;;;4.20;1.15;;;20.40;1.00;;;;;;5037439;28;20105;-28
2023/08/10 11:42:52;;;;;;;5.93;1.15;;;20.10;1.00;;;;;;5053320;28;20045;-28
2023/08/10 11:45:21;;;;;;;6.60;1.33;;;20.20;64.00;;;;;;5055957;28;20119;-28
2023/08/10 11:47:58;;;;;;;4.72;0.95;;;20.30;99.90;;;;;;5053070;28;20048;-28
2023/08/10 11:50:26;;;;;;;4.30;1.15;;;20.40;99.90;;;;;;5054398;28;20064;-28
2023/08/10 11:52:53;;;;;;;5.45;1.30;;;20.50;99.90;;;;;;5054295;28;20059;-28
2023/08/10 11:55:21;;;;;;;4.32;1.80;;;20.60;99.90;;;;;;5055036;28;20056;-28
2023/08/10 11:57:57;;;;;;;4.85;1.70;;;20.70;90.30;;;;;;5053395;28;20071;-28
2023/08/10 12:00:30;;;;;;;7.95;2.05;;;20.70;8.90;;;;;;5067693;28;20059;-28
2023/08/10 12:03:16;;;;;;;4.78;1.63;;;20.50;95.90;;;;;;5075081;28;20055;-29
2023/08/10 12:05:54;;;;;;;10.07;2.00;;;20.60;99.90;;;;;;5073476;28;20056;-28
2023/08/10 12:08:25;;;;;;;6.18;1.65;;;20.50;99.90;;;;;;5073848;28;20510;-28
2023/08/10 12:11:03;;;;;;;5.68;2.30;;;20.30;99.90;;;;;;5072407;28;20126;-29
2023/08/10 12:13:29;;;;;;;4.07;1.73;;;20.00;99.90;;;;;;5074865;28;20049;-29
2023/08/10 12:15:56;;;;;;;5.85;1.67;;;19.80;99.90;;;;;;5074607;28;20052;-28
2023/08/10 12:18:23;;;;;;;4.53;1.40;;;19.80;99.90;;;;;;5072823;28;20052;-28
2023/08/10 12:20:54;;;;;;;4.47;1.42;;;19.60;1.00;;;;;;5063101;28;20052;-28
2023/08/10 12:23:21;;;;;;;4.03;1.63;;;19.60;1.00;;;;;;5058074;28;20036;-28
2023/08/10 12:25:48;;;;;;;7.15;2.05;;;19.50;1.00;;;;;;5065384;28;20056;-28
2023/08/10 12:28:15;;;;;;;8.63;1.98;;;19.40;15.90;;;;;;5053827;28;20049;-28
2023/08/10 12:30:41;;;;;;;6.07;2.33;;;19.40;99.90;;;;;;5055421;28;20045;-28
2023/08/10 12:33:09;;;;;;;6.55;1.92;;;19.40;99.90;;;;;;5071058;28;20501;-29
2023/08/10 12:35:35;;;;;;;5.53;1.70;;;19.40;99.90;;;;;;5069614;28;20061;-28
2023/08/10 12:38:03;;;;;;;9.25;2.20;;;19.30;99.90;;;;;;5053579;28;20054;-25
2023/08/10 12:40:29;;;;;;;6.60;2.22;;;19.40;99.90;;;;;;5044091;28;20482;-28
2023/08/10 12:42:55;;;;;;;3.80;1.80;;;19.30;99.90;;;;;;5072541;28;20127;-29
2023/08/10 12:45:22;;;;;;;3.50;1.83;;;19.20;99.90;;;;;;5061564;28;20135;-28
2023/08/10 12:47:48;;;;;;;6.05;1.88;;;19.10;99.90;;;;;;5054230;28;20056;-28